Time;durP1;ratioP1;P1;durP2;ratioP2;P2;SDS_P1;SDS_P2;PMS_P1;PMS_P2;Temp;Humidity;BMP_temperature;BMP_pressure;BME280_temperature;BME280_humidity;BME280_pressure;Samples;Min_cycle;Max_cycle;Signal;HPM_P1;HPM_P2
2022/08/25 00:01:29;;;;;;;6.40;5.80;;;23.50;99.90;;;;;;5032998;28;20575;-62
2022/08/25 00:03:57;;;;;;;7.13;6.10;;;23.40;99.90;;;;;;5022333;28;20264;-62
2022/08/25 00:06:23;;;;;;;10.73;7.05;;;23.40;99.90;;;;;;5014336;28;20186;-62
2022/08/25 00:08:49;;;;;;;10.48;6.70;;;23.40;99.90;;;;;;5015210;28;20187;-62
2022/08/25 00:11:19;;;;;;;14.73;6.88;;;23.30;99.90;;;;;;5013254;28;20175;-62
2022/08/25 00:13:49;;;;;;;9.65;6.97;;;23.30;99.90;;;;;;5019292;28;20545;-69
2022/08/25 00:16:17;;;;;;;9.15;7.13;;;23.30;99.90;;;;;;5022605;28;20171;-69
2022/08/25 00:18:45;;;;;;;11.30;7.60;;;23.20;99.90;;;;;;5026455;28;20183;-70
2022/08/25 00:21:12;;;;;;;7.07;6.40;;;23.20;99.90;;;;;;5028144;28;20222;-71
2022/08/25 00:23:38;;;;;;;8.82;7.93;;;23.20;99.90;;;;;;5011788;28;20328;-64
2022/08/25 00:26:05;;;;;;;10.20;8.23;;;23.20;99.90;;;;;;5015378;28;20194;-64
2022/08/25 00:28:31;;;;;;;10.90;6.72;;;23.20;99.90;;;;;;5025637;28;20179;-64
2022/08/25 00:31:00;;;;;;;8.27;6.97;;;23.10;99.90;;;;;;5044946;28;20659;-63
2022/08/25 00:33:27;;;;;;;9.23;7.20;;;23.10;99.90;;;;;;5057245;28;20218;-64
2022/08/25 00:35:55;;;;;;;7.88;6.63;;;23.10;99.90;;;;;;5027315;28;20278;-64
2022/08/25 00:38:21;;;;;;;10.40;6.57;;;23.00;99.90;;;;;;5023234;28;20236;-64
2022/08/25 00:41:04;;;;;;;7.60;5.97;;;23.00;99.90;;;;;;5028425;28;20570;-64
2022/08/25 00:43:47;;;;;;;7.53;6.82;;;22.90;99.90;;;;;;5022212;28;20293;-64
2022/08/25 00:46:19;;;;;;;7.15;6.38;;;22.90;99.90;;;;;;5017912;28;20187;-64
2022/08/25 00:48:49;;;;;;;8.43;7.00;;;22.90;99.90;;;;;;5011947;28;20183;-65
2022/08/25 00:51:22;;;;;;;9.15;7.50;;;22.90;99.90;;;;;;5012764;28;20194;-64
2022/08/25 00:53:49;;;;;;;6.75;6.10;;;22.90;99.90;;;;;;5014581;28;20181;-68
2022/08/25 00:56:15;;;;;;;11.55;8.30;;;22.90;99.90;;;;;;5013120;28;20175;-64
2022/08/25 00:58:41;;;;;;;6.97;6.40;;;22.90;99.90;;;;;;5014665;28;20334;-64
2022/08/25 01:01:08;;;;;;;10.05;7.45;;;22.90;99.90;;;;;;5044290;28;20211;-64
2022/08/25 01:03:34;;;;;;;10.98;7.50;;;22.90;99.90;;;;;;5043688;28;20221;-64
2022/08/25 01:06:03;;;;;;;12.10;7.55;;;22.80;99.90;;;;;;5012774;28;20274;-65
2022/08/25 01:08:31;;;;;;;7.38;6.45;;;22.70;99.90;;;;;;5027334;28;20225;-64
2022/08/25 01:11:02;;;;;;;8.32;7.50;;;22.70;99.90;;;;;;5037371;28;20272;-65
2022/08/25 01:13:51;;;;;;;8.48;7.70;;;22.70;99.90;;;;;;5013667;28;20636;-64
2022/08/25 01:16:17;;;;;;;7.20;6.50;;;22.60;99.90;;;;;;5029025;28;20179;-66
2022/08/25 01:18:52;;;;;;;7.88;7.18;;;22.60;99.90;;;;;;5028302;28;20217;-65
2022/08/25 01:21:21;;;;;;;11.52;8.27;;;22.60;99.90;;;;;;5012605;28;20562;-63
2022/08/25 01:23:48;;;;;;;7.20;6.60;;;22.60;99.90;;;;;;5012649;28;20180;-64
2022/08/25 01:26:21;;;;;;;10.05;7.88;;;22.60;99.90;;;;;;5012770;28;20202;-63
2022/08/25 01:31:34;;;;;;;7.47;6.78;;;22.50;99.90;;;;;;5012335;28;20333;-63
2022/08/25 01:34:00;;;;;;;8.50;7.65;;;22.50;99.90;;;;;;5055186;28;20193;-63
2022/08/25 01:36:28;;;;;;;8.48;7.68;;;22.50;99.90;;;;;;5026352;28;20199;-63
2022/08/25 01:38:54;;;;;;;9.05;6.93;;;22.50;99.90;;;;;;5023109;28;20259;-64
2022/08/25 01:41:38;;;;;;;8.25;7.45;;;22.40;99.90;;;;;;5024124;28;20211;-63
2022/08/25 01:44:04;;;;;;;7.70;7.00;;;22.40;99.90;;;;;;5018219;28;20186;-63
2022/08/25 01:46:31;;;;;;;8.07;7.32;;;22.30;99.90;;;;;;5030155;28;20189;-63
2022/08/25 01:48:56;;;;;;;8.48;7.63;;;22.30;99.90;;;;;;5013165;28;20192;-63
2022/08/25 01:51:24;;;;;;;6.88;6.20;;;22.30;99.90;;;;;;5032151;28;20194;-63
2022/08/25 01:53:50;;;;;;;7.97;7.15;;;22.30;99.90;;;;;;5017587;28;20203;-63
2022/08/25 01:56:16;;;;;;;6.35;5.75;;;22.20;99.90;;;;;;5023994;28;20257;-63
2022/08/25 01:58:47;;;;;;;10.27;6.47;;;22.20;99.90;;;;;;5017321;28;20554;-63
2022/08/25 02:01:17;;;;;;;8.65;7.70;;;22.20;99.90;;;;;;5023798;28;20294;-64
2022/08/25 02:03:45;;;;;;;11.02;7.22;;;22.20;99.90;;;;;;5027442;28;20175;-63
2022/08/25 02:06:13;;;;;;;9.10;7.30;;;22.20;99.90;;;;;;5016601;28;20183;-63
2022/08/25 02:08:40;;;;;;;9.45;7.68;;;22.20;99.90;;;;;;5023617;28;20179;-63
2022/08/25 02:11:10;;;;;;;8.07;7.28;;;22.10;99.90;;;;;;5030418;28;20194;-63
2022/08/25 02:13:36;;;;;;;8.32;7.43;;;22.20;99.90;;;;;;5016859;28;20167;-63
2022/08/25 02:16:02;;;;;;;12.93;7.63;;;22.10;99.90;;;;;;5048138;28;20233;-63
2022/08/25 02:18:28;;;;;;;8.85;7.55;;;22.10;99.90;;;;;;5032972;28;20182;-63
2022/08/25 02:20:54;;;;;;;7.80;6.80;;;22.00;99.90;;;;;;5032032;28;20369;-63
2022/08/25 02:23:20;;;;;;;8.20;7.22;;;22.00;99.90;;;;;;5033277;28;20571;-63
2022/08/25 02:25:46;;;;;;;8.98;6.97;;;22.10;99.90;;;;;;5029990;28;20270;-63
2022/08/25 02:28:12;;;;;;;8.57;7.72;;;22.00;99.90;;;;;;5000836;28;20533;-63
2022/08/25 02:30:39;;;;;;;11.05;7.40;;;22.00;99.90;;;;;;5051905;28;20219;-63
2022/08/25 02:33:05;;;;;;;7.75;6.95;;;22.00;99.90;;;;;;5024073;28;20301;-63
2022/08/25 02:35:31;;;;;;;9.00;7.38;;;21.90;99.90;;;;;;5030341;28;20273;-63
2022/08/25 02:37:57;;;;;;;8.63;7.72;;;21.90;99.90;;;;;;5019745;28;20321;-63
2022/08/25 02:40:23;;;;;;;9.45;7.18;;;21.90;99.90;;;;;;5026261;28;20349;-62
2022/08/25 02:42:50;;;;;;;8.90;7.32;;;21.80;99.90;;;;;;5021899;28;20214;-63
2022/08/25 02:45:17;;;;;;;10.32;7.80;;;21.90;99.90;;;;;;5016609;28;20218;-63
2022/08/25 02:47:44;;;;;;;8.45;7.38;;;21.90;99.90;;;;;;5016224;28;20174;-63
2022/08/25 02:50:10;;;;;;;10.57;8.18;;;21.80;99.90;;;;;;4998234;28;20262;-63
2022/08/25 02:52:37;;;;;;;11.98;9.13;;;21.80;99.90;;;;;;5014544;28;20660;-62
2022/08/25 02:55:05;;;;;;;10.40;8.45;;;21.90;99.90;;;;;;5018551;28;20179;-62
2022/08/25 02:57:31;;;;;;;8.45;7.65;;;21.90;99.90;;;;;;5021629;28;20704;-62
2022/08/25 02:59:57;;;;;;;9.68;8.65;;;21.90;99.90;;;;;;5017060;28;20648;-62
2022/08/25 03:02:24;;;;;;;8.77;7.68;;;21.70;99.90;;;;;;5013165;28;20214;-63
2022/08/25 03:04:52;;;;;;;9.20;8.25;;;21.70;99.90;;;;;;5052854;28;20193;-63
2022/08/25 03:07:21;;;;;;;8.82;8.02;;;21.60;99.90;;;;;;5012372;28;21010;-62
2022/08/25 03:09:46;;;;;;;9.45;8.52;;;21.50;99.90;;;;;;5036894;28;20190;-62
2022/08/25 03:12:12;;;;;;;12.32;8.75;;;21.60;99.90;;;;;;5019094;28;20191;-63
2022/08/25 03:14:39;;;;;;;9.50;8.50;;;21.60;99.90;;;;;;5047163;28;20629;-62
2022/08/25 03:17:06;;;;;;;10.07;9.00;;;21.60;99.90;;;;;;5027895;28;20190;-63
2022/08/25 03:19:32;;;;;;;10.35;9.27;;;21.50;99.90;;;;;;5019076;28;20517;-63
2022/08/25 03:21:58;;;;;;;10.02;9.02;;;21.40;99.90;;;;;;5023375;28;20210;-64
2022/08/25 03:24:25;;;;;;;14.02;9.38;;;21.50;99.90;;;;;;5016862;28;20195;-63
2022/08/25 03:26:57;;;;;;;10.43;9.40;;;21.40;99.90;;;;;;5014442;28;20183;-63
2022/08/25 03:29:25;;;;;;;9.73;8.70;;;21.40;99.90;;;;;;5014529;28;20564;-63
2022/08/25 03:31:53;;;;;;;10.05;8.60;;;21.20;99.90;;;;;;5015904;28;20663;-63
2022/08/25 03:34:20;;;;;;;12.52;9.43;;;21.20;99.90;;;;;;5013755;28;20199;-63
2022/08/25 03:36:49;;;;;;;12.50;10.15;;;21.10;99.90;;;;;;5019951;28;20187;-63
2022/08/25 03:39:16;;;;;;;10.35;9.32;;;21.00;99.90;;;;;;5021493;28;20180;-63
2022/08/25 03:41:42;;;;;;;10.27;9.27;;;21.00;99.90;;;;;;5028759;28;20724;-63
2022/08/25 03:44:08;;;;;;;13.50;9.95;;;20.90;99.90;;;;;;5013605;28;20667;-64
2022/08/25 03:46:41;;;;;;;11.32;10.07;;;20.90;99.90;;;;;;5023496;28;20237;-63
2022/08/25 03:49:09;;;;;;;12.88;9.60;;;20.90;99.90;;;;;;5014306;28;20237;-63
2022/08/25 03:51:42;;;;;;;9.88;8.65;;;20.90;99.90;;;;;;5015410;28;20662;-64
2022/08/25 03:54:09;;;;;;;10.52;9.15;;;20.80;99.90;;;;;;5016868;28;20595;-63
2022/08/25 03:56:36;;;;;;;9.77;8.82;;;20.90;99.90;;;;;;5021766;28;20181;-63
2022/08/25 03:59:02;;;;;;;10.85;9.73;;;20.90;99.90;;;;;;5029794;28;20527;-63
2022/08/25 04:01:28;;;;;;;10.65;9.07;;;20.90;99.90;;;;;;5015878;28;20206;-63
2022/08/25 04:03:54;;;;;;;11.40;10.18;;;20.90;99.90;;;;;;5012366;28;20182;-63
2022/08/25 04:06:20;;;;;;;10.68;9.35;;;21.00;99.90;;;;;;5030338;28;20237;-63
2022/08/25 04:08:46;;;;;;;10.20;9.25;;;21.10;99.90;;;;;;5012257;28;20220;-63
2022/08/25 04:11:16;;;;;;;13.60;9.77;;;20.90;99.90;;;;;;5028489;28;20211;-63
2022/08/25 04:13:44;;;;;;;9.73;8.73;;;20.90;99.90;;;;;;5013414;28;20182;-64
2022/08/25 04:16:13;;;;;;;9.88;8.52;;;20.90;99.90;;;;;;5024123;28;20282;-63
2022/08/25 04:18:39;;;;;;;10.18;9.05;;;20.90;99.90;;;;;;5017316;28;20187;-63
2022/08/25 04:21:08;;;;;;;8.93;8.02;;;20.90;99.90;;;;;;5019776;28;20210;-63
2022/08/25 04:23:35;;;;;;;9.25;8.27;;;20.70;99.90;;;;;;5011387;28;20274;-63
2022/08/25 04:26:06;;;;;;;9.98;8.82;;;20.70;99.90;;;;;;5012977;28;20261;-63
2022/08/25 04:28:32;;;;;;;9.25;8.25;;;20.80;99.90;;;;;;5029215;28;20183;-63
2022/08/25 04:30:57;;;;;;;12.98;9.20;;;20.80;99.90;;;;;;5043570;28;20183;-63
2022/08/25 04:33:23;;;;;;;9.23;8.35;;;20.70;99.90;;;;;;5023699;28;20183;-63
2022/08/25 04:35:49;;;;;;;8.88;7.82;;;20.70;99.90;;;;;;5012412;28;20614;-63
2022/08/25 04:38:15;;;;;;;8.48;7.60;;;20.80;99.90;;;;;;5017649;28;20274;-63
2022/08/25 04:40:41;;;;;;;8.85;8.15;;;20.80;99.90;;;;;;5029876;28;20183;-63
2022/08/25 04:43:06;;;;;;;9.05;8.07;;;20.70;99.90;;;;;;5018297;28;20191;-63
2022/08/25 04:45:37;;;;;;;13.27;7.57;;;20.80;99.90;;;;;;5004747;28;20596;-63
2022/08/25 04:48:03;;;;;;;9.88;7.72;;;20.70;99.90;;;;;;5027090;28;20552;-63
2022/08/25 04:50:28;;;;;;;9.82;7.60;;;20.70;99.90;;;;;;5027944;28;20183;-64
2022/08/25 04:52:54;;;;;;;7.95;7.18;;;20.70;99.90;;;;;;5020747;28;20608;-63
2022/08/25 04:55:20;;;;;;;8.85;8.02;;;20.80;99.90;;;;;;5043577;28;20183;-63
2022/08/25 04:57:46;;;;;;;8.43;7.47;;;20.70;99.90;;;;;;5014881;28;20265;-63
2022/08/25 05:00:12;;;;;;;7.60;6.88;;;20.70;99.90;;;;;;5019010;28;20182;-63
2022/08/25 05:02:38;;;;;;;8.18;7.47;;;20.80;99.90;;;;;;5044810;28;20287;-63
2022/08/25 05:05:05;;;;;;;16.33;7.93;;;20.80;99.90;;;;;;5013016;28;20275;-63
2022/08/25 05:07:31;;;;;;;9.77;8.05;;;20.80;99.90;;;;;;5014055;28;20191;-63
2022/08/25 05:09:56;;;;;;;8.30;7.47;;;20.90;99.90;;;;;;5005148;28;20186;-63
2022/08/25 05:12:22;;;;;;;8.95;7.40;;;21.10;99.90;;;;;;5044391;28;20191;-63
2022/08/25 05:14:50;;;;;;;7.93;7.07;;;21.50;99.90;;;;;;5019528;28;20182;-63
2022/08/25 05:17:16;;;;;;;8.18;7.38;;;21.40;99.90;;;;;;5019555;28;20172;-63
2022/08/25 05:19:42;;;;;;;12.25;6.50;;;21.20;99.90;;;;;;5040244;28;20184;-67
2022/08/25 05:22:08;;;;;;;7.25;6.57;;;21.20;99.90;;;;;;5019271;28;20287;-68
2022/08/25 05:24:34;;;;;;;9.43;6.60;;;21.30;99.90;;;;;;5049816;28;20470;-68
2022/08/25 05:27:00;;;;;;;7.32;6.63;;;21.30;99.90;;;;;;5013188;28;20214;-68
2022/08/25 05:29:26;;;;;;;6.30;5.70;;;21.40;99.90;;;;;;5038292;28;20188;-68
2022/08/25 05:31:52;;;;;;;6.28;5.85;;;21.50;99.90;;;;;;5047423;28;20201;-67
2022/08/25 05:34:19;;;;;;;7.63;6.80;;;21.50;99.90;;;;;;5017233;28;20629;-66
2022/08/25 05:36:45;;;;;;;10.13;6.93;;;21.60;99.90;;;;;;5065594;28;20217;-67
2022/08/25 05:39:12;;;;;;;5.53;5.10;;;21.70;99.90;;;;;;5014215;28;20183;-70
2022/08/25 05:41:37;;;;;;;7.50;6.07;;;21.80;99.90;;;;;;5030922;28;20199;-62
2022/08/25 05:44:03;;;;;;;6.00;5.50;;;21.90;99.90;;;;;;5022687;28;20706;-63
2022/08/25 05:46:29;;;;;;;5.60;5.10;;;22.10;99.90;;;;;;5024336;28;20234;-63
2022/08/25 05:48:55;;;;;;;5.45;4.95;;;22.20;99.90;;;;;;5023246;28;20615;-63
2022/08/25 05:51:20;;;;;;;10.05;5.25;;;22.40;99.90;;;;;;5017472;28;20678;-64
2022/08/25 05:53:48;;;;;;;6.07;5.45;;;22.50;99.90;;;;;;5049754;28;20231;-63
2022/08/25 05:56:15;;;;;;;8.18;5.60;;;22.70;99.90;;;;;;5022090;28;20175;-63
2022/08/25 05:58:41;;;;;;;8.07;4.93;;;22.80;99.90;;;;;;5017965;28;20175;-63
2022/08/25 06:03:53;;;;;;;9.10;5.13;;;23.10;99.90;;;;;;5014798;28;20206;-64
2022/08/25 06:06:19;;;;;;;5.65;4.50;;;23.40;99.90;;;;;;5016333;28;20229;-65
2022/08/25 06:08:45;;;;;;;5.40;4.40;;;23.50;99.90;;;;;;5017053;28;20237;-64
2022/08/25 06:11:12;;;;;;;5.97;4.65;;;23.60;99.90;;;;;;5021733;28;20174;-65
2022/08/25 06:13:38;;;;;;;5.90;4.57;;;23.70;99.90;;;;;;5016039;28;20230;-64
2022/08/25 06:16:05;;;;;;;4.70;3.92;;;23.80;99.90;;;;;;5014552;28;20710;-65
2022/08/25 06:18:30;;;;;;;5.50;4.90;;;23.90;99.90;;;;;;5020434;28;20598;-65
2022/08/25 06:20:56;;;;;;;4.55;4.03;;;23.90;99.90;;;;;;5022925;28;20184;-65
2022/08/25 06:23:22;;;;;;;6.18;4.53;;;24.20;99.90;;;;;;5021086;28;20184;-65
2022/08/25 06:25:52;;;;;;;4.60;4.20;;;24.30;99.90;;;;;;5015273;28;20289;-65
2022/08/25 06:28:18;;;;;;;3.83;3.40;;;24.40;99.90;;;;;;5028167;28;20751;-69
2022/08/25 06:30:45;;;;;;;5.53;4.15;;;24.50;99.90;;;;;;5023161;28;20220;-69
2022/08/25 06:33:11;;;;;;;4.15;3.70;;;24.50;99.90;;;;;;5017032;28;20188;-69
2022/08/25 06:35:41;;;;;;;6.32;3.67;;;24.60;99.90;;;;;;5028829;28;20607;-69
2022/08/25 06:38:07;;;;;;;4.38;4.07;;;24.70;99.90;;;;;;5018408;28;20218;-69
2022/08/25 06:40:33;;;;;;;4.00;3.70;;;24.80;99.90;;;;;;5022645;28;20215;-69
2022/08/25 06:42:59;;;;;;;4.50;4.10;;;24.90;99.90;;;;;;5013660;28;20285;-69
2022/08/25 06:45:24;;;;;;;4.53;4.15;;;24.90;99.90;;;;;;5031255;28;20182;-69
2022/08/25 06:47:51;;;;;;;5.32;4.03;;;25.00;99.90;;;;;;5025036;28;20195;-70
2022/08/25 06:50:17;;;;;;;4.53;4.07;;;25.10;99.90;;;;;;5023264;28;20179;-65
2022/08/25 06:52:42;;;;;;;5.50;4.47;;;25.20;99.90;;;;;;5024808;28;20514;-66
2022/08/25 06:55:09;;;;;;;4.22;3.85;;;25.30;99.90;;;;;;5016962;28;20680;-65
2022/08/25 06:57:34;;;;;;;5.30;4.13;;;25.10;99.90;;;;;;5014710;28;20676;-66
2022/08/25 07:00:03;;;;;;;6.65;4.13;;;25.30;99.90;;;;;;5038310;28;20186;-66
2022/08/25 07:02:29;;;;;;;5.53;4.88;;;25.60;99.90;;;;;;5019848;28;20207;-66
2022/08/25 07:04:54;;;;;;;6.82;3.78;;;25.90;99.90;;;;;;5016057;28;20596;-66
2022/08/25 07:07:20;;;;;;;6.15;4.40;;;26.00;99.90;;;;;;5052386;28;20223;-66
2022/08/25 07:09:46;;;;;;;4.53;4.10;;;26.10;99.90;;;;;;5002735;28;20617;-67
2022/08/25 07:12:11;;;;;;;9.65;4.78;;;26.20;99.90;;;;;;5020193;28;20552;-66
2022/08/25 07:14:37;;;;;;;5.13;3.85;;;26.30;99.90;;;;;;5021639;28;20183;-66
2022/08/25 07:17:03;;;;;;;6.38;3.65;;;26.40;99.90;;;;;;5016031;28;20205;-67
2022/08/25 07:19:28;;;;;;;4.20;3.80;;;26.70;99.90;;;;;;5025373;28;20216;-66
2022/08/25 07:21:54;;;;;;;6.47;4.20;;;26.80;99.90;;;;;;5025584;28;20210;-66
2022/08/25 07:24:21;;;;;;;4.95;3.95;;;26.90;99.90;;;;;;5019501;28;20194;-66
2022/08/25 07:26:47;;;;;;;6.32;3.28;;;27.30;99.90;;;;;;5014736;28;20171;-66
2022/08/25 07:29:17;;;;;;;6.85;3.83;;;27.10;99.90;;;;;;5014540;28;20182;-66
2022/08/25 07:31:44;;;;;;;5.63;3.38;;;27.20;99.90;;;;;;5017308;28;20181;-66
2022/08/25 07:36:55;;;;;;;10.13;4.95;;;27.70;99.90;;;;;;5018415;28;20205;-66
2022/08/25 07:39:22;;;;;;;3.40;3.17;;;28.60;99.90;;;;;;5022359;28;20734;-66
2022/08/25 07:41:48;;;;;;;4.55;3.92;;;29.30;99.90;;;;;;5020423;28;20689;-66
2022/08/25 07:44:13;;;;;;;3.60;3.38;;;29.90;99.90;;;;;;5018725;28;20316;-67
2022/08/25 07:46:39;;;;;;;3.22;2.92;;;30.50;99.90;;;;;;5014838;28;20578;-66
2022/08/25 07:49:06;;;;;;;5.97;3.55;;;31.30;99.90;;;;;;5030860;28;20178;-67
2022/08/25 07:51:32;;;;;;;4.18;3.88;;;32.40;99.90;;;;;;5011754;28;20175;-66
2022/08/25 07:53:57;;;;;;;5.13;2.88;;;33.20;99.90;;;;;;5014080;28;20190;-66
2022/08/25 07:56:23;;;;;;;3.88;3.45;;;33.60;99.90;;;;;;5012897;28;20257;-66
2022/08/25 07:58:49;;;;;;;8.60;2.50;;;34.90;99.90;;;;;;5014097;28;20238;-67
2022/08/25 08:01:18;;;;;;;2.90;2.70;;;35.00;99.90;;;;;;5020846;28;20215;-66
2022/08/25 08:03:44;;;;;;;4.25;2.85;;;35.70;99.90;;;;;;5031837;28;20229;-66
2022/08/25 08:06:12;;;;;;;4.03;2.45;;;36.30;99.90;;;;;;5013515;28;20708;-67
2022/08/25 08:08:43;;;;;;;5.45;2.60;;;36.40;99.90;;;;;;5024055;28;20203;-66
2022/08/25 08:11:15;;;;;;;2.58;2.38;;;36.00;99.90;;;;;;5019109;28;20236;-66
2022/08/25 08:13:41;;;;;;;2.95;2.42;;;35.20;99.90;;;;;;5024324;28;20281;-66
2022/08/25 08:16:09;;;;;;;4.63;2.67;;;34.30;99.90;;;;;;5016310;28;20695;-66
2022/08/25 08:18:34;;;;;;;5.50;2.67;;;34.60;99.90;;;;;;5028787;28;20190;-66
2022/08/25 08:21:00;;;;;;;5.97;2.65;;;34.20;99.90;;;;;;5029202;28;20189;-66
2022/08/25 08:23:27;;;;;;;3.08;2.78;;;33.20;99.90;;;;;;5009021;28;20241;-67
2022/08/25 08:25:52;;;;;;;2.72;2.30;;;32.90;99.90;;;;;;5025763;28;20215;-66
2022/08/25 08:28:18;;;;;;;3.70;3.35;;;33.60;99.90;;;;;;5011520;28;20221;-66
2022/08/25 08:30:44;;;;;;;2.85;2.33;;;35.00;99.90;;;;;;5028508;28;20194;-66
2022/08/25 08:33:09;;;;;;;2.92;2.70;;;36.40;99.90;;;;;;5011501;28;20175;-66
2022/08/25 08:35:35;;;;;;;2.15;2.05;;;36.90;99.90;;;;;;4998180;28;20182;-66
2022/08/25 08:38:00;;;;;;;2.70;2.50;;;37.60;99.90;;;;;;5025201;28;20268;-66
2022/08/25 08:40:28;;;;;;;5.15;2.38;;;37.70;99.90;;;;;;5025161;28;20178;-68
2022/08/25 08:43:04;;;;;;;7.00;3.05;;;38.20;99.90;;;;;;5013946;28;20205;-66
2022/08/25 08:45:42;;;;;;;2.15;2.05;;;38.90;99.90;;;;;;5019261;28;20213;-67
2022/08/25 08:48:32;;;;;;;3.20;2.60;;;39.00;99.90;;;;;;5019435;28;20190;-67
2022/08/25 08:51:20;;;;;;;5.85;2.30;;;39.10;99.80;;;;;;5013001;28;20232;-67
2022/08/25 08:53:48;;;;;;;3.20;1.88;;;38.80;98.60;;;;;;5044557;28;20266;-66
2022/08/25 08:56:21;;;;;;;3.78;3.38;;;38.80;98.50;;;;;;5015099;28;20167;-66
2022/08/25 08:58:51;;;;;;;1.88;1.67;;;38.70;98.00;;;;;;5018797;28;20178;-67
2022/08/25 09:01:28;;;;;;;4.43;2.30;;;38.70;98.10;;;;;;5017058;28;20292;-67
2022/08/25 09:04:12;;;;;;;3.55;2.22;;;38.00;98.30;;;;;;5020265;28;20185;-67
2022/08/25 09:06:42;;;;;;;2.58;2.33;;;37.60;99.30;;;;;;5021016;28;20194;-67
2022/08/25 09:09:11;;;;;;;3.10;2.17;;;36.40;99.50;;;;;;5029160;28;20173;-65
2022/08/25 09:12:02;;;;;;;5.35;2.92;;;35.60;99.90;;;;;;5041551;28;20201;-67
2022/08/25 09:14:42;;;;;;;2.75;2.55;;;34.30;99.90;;;;;;5016421;28;20258;-67
2022/08/25 09:17:25;;;;;;;3.40;2.40;;;33.80;99.90;;;;;;5017561;28;20182;-67
2022/08/25 09:20:16;;;;;;;2.92;2.65;;;33.60;99.90;;;;;;5014389;28;20265;-66
2022/08/25 09:23:11;;;;;;;2.45;2.17;;;33.30;99.90;;;;;;5021985;28;20267;-65
2022/08/25 09:26:02;;;;;;;4.00;2.10;;;32.80;99.90;;;;;;5039251;28;20214;-66
2022/08/25 09:28:49;;;;;;;4.47;2.63;;;32.90;99.90;;;;;;5019687;28;20174;-66
2022/08/25 09:31:22;;;;;;;2.38;1.90;;;32.90;99.90;;;;;;5023250;28;20194;-67
2022/08/25 09:33:51;;;;;;;2.53;2.28;;;33.00;99.90;;;;;;5023014;28;20178;-67
2022/08/25 09:36:17;;;;;;;3.92;2.72;;;33.00;99.90;;;;;;5034133;28;20248;-68
2022/08/25 09:38:43;;;;;;;8.20;2.97;;;32.90;99.90;;;;;;5037689;28;20277;-65
2022/08/25 09:41:10;;;;;;;3.20;3.00;;;32.90;99.90;;;;;;5017873;28;20209;-66
2022/08/25 09:43:40;;;;;;;2.08;1.98;;;32.90;99.90;;;;;;5020637;28;20269;-66
2022/08/25 09:46:22;;;;;;;12.85;2.40;;;33.00;99.90;;;;;;5019999;28;20170;-65
2022/08/25 09:48:52;;;;;;;3.85;2.28;;;32.80;99.90;;;;;;5016012;28;20182;-67
2022/08/25 09:51:34;;;;;;;6.47;2.60;;;32.80;99.90;;;;;;5023637;28;20183;-68
2022/08/25 09:54:03;;;;;;;2.90;1.92;;;32.90;99.90;;;;;;5017057;28;20183;-69
2022/08/25 09:56:46;;;;;;;1.90;1.80;;;32.90;98.80;;;;;;5023234;28;20174;-67
2022/08/25 09:59:28;;;;;;;1.92;1.83;;;32.80;99.20;;;;;;5031129;28;20646;-67
2022/08/25 10:01:59;;;;;;;2.60;2.42;;;32.70;99.90;;;;;;5027313;28;20678;-67
2022/08/25 10:04:33;;;;;;;3.25;2.30;;;32.60;99.90;;;;;;5020511;28;20193;-66
2022/08/25 10:07:17;;;;;;;2.45;2.10;;;32.50;99.90;;;;;;5034473;28;20251;-66
2022/08/25 10:09:58;;;;;;;1.98;1.73;;;32.80;99.90;;;;;;5019290;28;20539;-66
2022/08/25 10:12:34;;;;;;;1.98;1.88;;;32.90;99.40;;;;;;5034096;28;20259;-65
2022/08/25 10:15:22;;;;;;;3.40;2.28;;;32.80;99.90;;;;;;5026742;28;20261;-67
2022/08/25 10:17:49;;;;;;;2.47;2.28;;;32.90;99.90;;;;;;5016735;28;20183;-66
2022/08/25 10:20:18;;;;;;;2.50;2.30;;;33.00;99.30;;;;;;5017140;28;20190;-65
2022/08/25 10:22:45;;;;;;;4.05;2.42;;;33.00;99.90;;;;;;5056093;28;20209;-67
2022/08/25 10:25:12;;;;;;;2.33;2.22;;;33.10;99.50;;;;;;5016058;28;20183;-66
2022/08/25 10:28:00;;;;;;;2.30;2.20;;;33.20;99.80;;;;;;5021675;28;20220;-65
2022/08/25 10:31:09;;;;;;;3.85;3.17;;;33.20;99.40;;;;;;5015610;28;20182;-65
2022/08/25 10:33:54;;;;;;;7.30;3.10;;;33.10;98.90;;;;;;5022782;28;20186;-65
2022/08/25 10:36:29;;;;;;;8.18;2.58;;;33.10;99.30;;;;;;5015025;28;20178;-66
2022/08/25 10:39:00;;;;;;;2.72;2.63;;;32.80;99.00;;;;;;5019749;28;20265;-65
2022/08/25 10:41:32;;;;;;;2.80;2.42;;;32.80;99.30;;;;;;5023371;28;20285;-65
2022/08/25 10:47:36;;;;;;;25.88;18.05;;;33.00;98.80;;;;;;5031052;28;20229;-65
2022/08/25 10:50:12;;;;;;;3.58;3.28;;;33.10;99.50;;;;;;5017153;28;20261;-66
2022/08/25 10:53:03;;;;;;;3.83;2.70;;;33.10;98.80;;;;;;5025223;28;20235;-66
2022/08/25 10:55:39;;;;;;;4.32;2.42;;;33.10;98.40;;;;;;5014229;28;20183;-66
2022/08/25 10:58:23;;;;;;;2.50;2.30;;;32.90;98.70;;;;;;5014920;28;20206;-65
2022/08/25 11:01:24;;;;;;;2.33;2.13;;;33.00;99.10;;;;;;5019639;28;20188;-65
2022/08/25 11:04:06;;;;;;;2.58;2.38;;;33.00;98.70;;;;;;5020199;28;20658;-65
2022/08/25 11:06:36;;;;;;;2.50;2.30;;;33.20;98.20;;;;;;5023117;28;20213;-65
2022/08/25 11:09:09;;;;;;;2.00;1.90;;;33.20;98.70;;;;;;5026589;28;20595;-66
2022/08/25 11:11:48;;;;;;;2.63;2.42;;;33.20;98.20;;;;;;5016781;28;20636;-66
2022/08/25 11:14:35;;;;;;;3.83;2.10;;;33.20;97.40;;;;;;5026450;28;20259;-66
2022/08/25 11:17:19;;;;;;;2.17;1.98;;;33.40;96.90;;;;;;5020802;28;20174;-66
2022/08/25 11:19:47;;;;;;;2.25;2.10;;;33.30;97.30;;;;;;5030086;28;20232;-66
2022/08/25 11:22:31;;;;;;;5.45;2.50;;;33.40;97.90;;;;;;5026125;28;20198;-66
2022/08/25 11:25:48;;;;;;;2.58;2.38;;;33.50;97.60;;;;;;5014870;28;20186;-66
2022/08/25 11:28:20;;;;;;;11.10;2.38;;;33.50;97.60;;;;;;5025412;28;20241;-66
2022/08/25 11:30:46;;;;;;;2.63;2.42;;;33.70;97.50;;;;;;5012831;28;20179;-66
2022/08/25 11:33:17;;;;;;;2.30;2.15;;;33.80;97.30;;;;;;5042972;28;20185;-66
2022/08/25 11:35:52;;;;;;;4.68;2.35;;;33.60;98.20;;;;;;5026908;28;20273;-65
2022/08/25 11:38:39;;;;;;;2.65;2.40;;;33.80;98.30;;;;;;5016448;28;20260;-66
2022/08/25 11:41:28;;;;;;;3.03;2.15;;;33.70;97.60;;;;;;5019527;28;20656;-66
2022/08/25 11:44:03;;;;;;;2.45;2.25;;;33.80;98.00;;;;;;5025247;28;20205;-65
2022/08/25 11:46:35;;;;;;;4.85;3.20;;;33.60;96.90;;;;;;5014840;28;20174;-67
2022/08/25 11:49:28;;;;;;;3.13;2.40;;;33.20;97.50;;;;;;5017897;28;20169;-66
2022/08/25 11:51:54;;;;;;;2.72;2.53;;;33.20;97.30;;;;;;5014635;28;20185;-66
2022/08/25 11:54:38;;;;;;;2.85;2.17;;;33.00;97.30;;;;;;5014152;28;20182;-66
2022/08/25 11:57:15;;;;;;;2.60;2.40;;;33.10;97.70;;;;;;5014013;28;20179;-66
2022/08/25 11:59:54;;;;;;;2.50;2.30;;;33.20;97.30;;;;;;5013547;28;20206;-65
2022/08/25 12:02:35;;;;;;;2.80;2.28;;;33.50;97.00;;;;;;5013263;28;20201;-66
2022/08/25 12:05:04;;;;;;;10.05;2.47;;;33.40;97.10;;;;;;5022074;28;20181;-65
2022/08/25 12:11:01;;;;;;;12.02;2.92;;;33.40;96.40;;;;;;5032192;28;20223;-65
2022/08/25 12:13:50;;;;;;;2.40;2.20;;;33.10;97.20;;;;;;5027739;28;20271;-65
2022/08/25 12:16:35;;;;;;;4.50;2.78;;;33.00;98.10;;;;;;5015541;28;20191;-63
2022/08/25 12:19:23;;;;;;;2.53;2.33;;;33.00;98.50;;;;;;5017261;28;20197;-65
2022/08/25 12:21:49;;;;;;;2.80;2.63;;;33.10;98.30;;;;;;5025742;28;20217;-65
2022/08/25 12:24:19;;;;;;;3.33;2.80;;;33.20;97.70;;;;;;5011902;28;20697;-65
2022/08/25 12:26:56;;;;;;;2.33;2.15;;;33.70;98.50;;;;;;5023777;28;20197;-65
2022/08/25 12:29:34;;;;;;;4.63;2.60;;;33.90;98.00;;;;;;5017366;28;20182;-66
2022/08/25 12:32:25;;;;;;;4.45;3.65;;;34.20;97.40;;;;;;5028620;28;20201;-65
2022/08/25 12:35:13;;;;;;;5.38;3.13;;;34.40;97.90;;;;;;5021197;28;20206;-65
2022/08/25 12:38:00;;;;;;;3.00;2.75;;;34.70;97.90;;;;;;5020755;28;20186;-65
2022/08/25 12:40:52;;;;;;;3.22;2.83;;;34.50;97.40;;;;;;5016111;28;20174;-66
2022/08/25 12:44:07;;;;;;;2.97;2.75;;;34.50;96.50;;;;;;5021513;28;20694;-66
2022/08/25 12:46:36;;;;;;;3.65;3.35;;;33.90;96.30;;;;;;5026432;28;20201;-66
2022/08/25 12:49:33;;;;;;;3.15;2.95;;;33.80;98.20;;;;;;5025283;28;20198;-66
2022/08/25 12:52:18;;;;;;;2.78;2.58;;;33.90;97.40;;;;;;5016337;28;20718;-66
2022/08/25 12:55:04;;;;;;;3.17;2.88;;;33.80;97.60;;;;;;5015595;28;20187;-66
2022/08/25 12:57:49;;;;;;;2.28;1.90;;;33.60;97.80;;;;;;5020323;28;20272;-66
2022/08/25 13:00:22;;;;;;;6.03;2.83;;;33.40;97.50;;;;;;5024310;28;20182;-66
2022/08/25 13:02:57;;;;;;;3.97;2.53;;;33.50;98.20;;;;;;5022754;28;20347;-65
2022/08/25 13:05:25;;;;;;;3.05;2.75;;;33.10;96.90;;;;;;5027039;28;20229;-65
2022/08/25 13:08:14;;;;;;;4.93;2.92;;;33.20;96.80;;;;;;5023720;28;20197;-65
2022/08/25 13:10:45;;;;;;;3.85;2.58;;;33.60;97.20;;;;;;5028934;28;20208;-65
2022/08/25 13:13:36;;;;;;;5.95;2.63;;;33.70;96.70;;;;;;5019018;28;20185;-66
2022/08/25 13:16:06;;;;;;;3.85;2.80;;;33.50;97.00;;;;;;5016635;28;20179;-66
2022/08/25 13:18:34;;;;;;;5.85;2.67;;;34.00;97.40;;;;;;5025091;28;20193;-65
2022/08/25 13:21:27;;;;;;;2.85;2.65;;;34.40;96.90;;;;;;5029610;28;20205;-66